Time;durP1;ratioP1;P1;durP2;ratioP2;P2;SDS_P1;SDS_P2;PMS_P1;PMS_P2;Temp;Humidity;BMP_temperature;BMP_pressure;BME280_temperature;BME280_humidity;BME280_pressure;Samples;Min_cycle;Max_cycle;Signal;HPM_P1;HPM_P2
2023/11/30 00:01:02;;;;;;;10.40;5.95;;;;;;;-2.93;100.00;99972.41;5039466;28;20021;-83
2023/11/30 00:03:27;;;;;;;11.10;6.25;;;;;;;-2.92;100.00;99971.44;5022633;28;20498;-83
2023/11/30 00:05:53;;;;;;;10.35;6.07;;;;;;;-3.07;100.00;99968.09;5022754;28;20122;-83
2023/11/30 00:08:18;;;;;;;10.27;5.47;;;;;;;-3.21;100.00;99976.13;5022992;28;20586;-84
2023/11/30 00:10:44;;;;;;;9.57;6.03;;;;;;;-3.25;100.00;99975.50;5022848;28;20043;-83
2023/11/30 00:13:10;;;;;;;9.25;5.57;;;;;;;-3.35;100.00;99956.06;5055482;28;20043;-83
2023/11/30 00:15:35;;;;;;;8.85;5.82;;;;;;;-3.24;100.00;99966.66;5055486;28;20126;-83
2023/11/30 00:18:01;;;;;;;12.40;6.57;;;;;;;-3.25;100.00;99969.41;5039386;28;20490;-83
2023/11/30 00:20:26;;;;;;;10.55;5.88;;;;;;;-3.20;100.00;99973.38;5022837;28;20041;-83
2023/11/30 00:22:52;;;;;;;10.98;6.45;;;;;;;-3.02;100.00;99970.41;5022689;28;20043;-83
2023/11/30 00:25:20;;;;;;;11.43;7.22;;;;;;;-2.94;100.00;99974.19;5055361;28;20037;-84
2023/11/30 00:27:51;;;;;;;10.07;5.63;;;;;;;-2.82;100.00;99964.56;5055289;28;20087;-83
2023/11/30 00:30:17;;;;;;;13.32;6.68;;;;;;;-2.85;100.00;99958.69;5039765;28;20039;-83
2023/11/30 00:32:42;;;;;;;12.63;7.32;;;;;;;-2.82;100.00;99961.09;5038945;28;20111;-83
2023/11/30 00:35:08;;;;;;;10.48;6.05;;;;;;;-2.81;100.00;99968.88;5022640;28;20047;-83
2023/11/30 00:37:33;;;;;;;11.18;6.05;;;;;;;-2.75;100.00;99964.94;5055036;28;20414;-83
2023/11/30 00:39:59;;;;;;;10.75;6.18;;;;;;;-2.88;100.00;99957.97;5038750;28;20463;-83
2023/11/30 00:42:25;;;;;;;13.32;6.85;;;;;;;-2.88;100.00;99951.88;5038849;28;20033;-83
2023/11/30 00:44:51;;;;;;;8.90;5.63;;;;;;;-2.92;100.00;99960.91;5022132;28;20379;-83
2023/11/30 00:47:16;;;;;;;10.13;6.93;;;;;;;-3.02;100.00;99957.25;5022398;28;20068;-83
2023/11/30 00:49:42;;;;;;;14.07;6.80;;;;;;;-2.56;100.00;99956.59;5053925;28;20028;-83
2023/11/30 00:52:08;;;;;;;20.13;8.90;;;;;;;-2.51;100.00;99955.31;5055966;28;20035;-83
2023/11/30 00:54:33;;;;;;;10.55;5.85;;;;;;;-2.56;100.00;99951.34;5038291;28;20087;-83
2023/11/30 00:56:59;;;;;;;12.43;7.22;;;;;;;-2.61;100.00;99953.47;5038647;28;20036;-83
2023/11/30 00:59:24;;;;;;;13.00;7.03;;;;;;;-2.77;100.00;99965.09;5055092;28;20455;-83
2023/11/30 01:01:53;;;;;;;10.68;6.13;;;;;;;-2.94;100.00;99952.28;5038532;28;20039;-83
2023/11/30 01:04:18;;;;;;;6.60;3.75;;;;;;;-3.14;100.00;99951.09;5054425;28;20059;-83
2023/11/30 01:06:44;;;;;;;10.63;6.38;;;;;;;-3.10;100.00;99940.25;5038441;28;20681;-83
2023/11/30 01:09:10;;;;;;;7.45;5.45;;;;;;;-3.10;100.00;99942.88;5038042;28;20033;-83
2023/11/30 01:11:45;;;;;;;8.40;4.78;;;;;;;-2.82;100.00;99953.22;5037929;28;20151;-83
2023/11/30 01:14:13;;;;;;;12.98;8.52;;;;;;;-2.27;100.00;99960.56;5021819;28;20040;-83
2023/11/30 01:16:41;;;;;;;21.25;11.15;;;;;;;-1.72;100.00;99952.94;5038876;28;20032;-84
2023/11/30 01:19:07;;;;;;;13.18;9.57;;;;;;;-1.25;100.00;99942.31;5021265;28;20039;-84
2023/11/30 01:21:33;;;;;;;11.52;7.22;;;;;;;-0.98;100.00;99941.91;5037525;28;20407;-83
2023/11/30 01:23:59;;;;;;;7.75;4.63;;;;;;;-1.01;100.00;99936.91;5037909;28;20122;-83
2023/11/30 01:26:24;;;;;;;8.73;5.82;;;;;;;-1.00;100.00;99943.88;5037733;28;20049;-82
2023/11/30 01:28:50;;;;;;;9.57;6.40;;;;;;;-0.82;100.00;99941.53;5021515;28;20040;-83
2023/11/30 01:31:32;;;;;;;8.82;5.40;;;;;;;-0.73;100.00;99935.53;5021220;28;20037;-84
2023/11/30 01:34:07;;;;;;;9.02;5.78;;;;;;;-0.65;100.00;99935.75;5053845;28;20056;-84
2023/11/30 01:36:51;;;;;;;8.93;5.60;;;;;;;-0.69;100.00;99927.25;5037446;28;20158;-84
2023/11/30 01:39:20;;;;;;;8.30;5.45;;;;;;;-0.62;100.00;99935.50;5037672;28;20033;-83
2023/11/30 01:41:48;;;;;;;8.50;5.75;;;;;;;-0.65;100.00;99943.69;5037540;28;20032;-84
2023/11/30 01:44:13;;;;;;;8.40;5.20;;;;;;;-0.75;100.00;99943.56;5021040;28;20127;-84
2023/11/30 01:46:39;;;;;;;10.20;4.47;;;;;;;-0.94;100.00;99946.00;5037686;28;20480;-83
2023/11/30 01:49:06;;;;;;;8.13;5.10;;;;;;;-1.01;100.00;99943.00;5021121;28;20135;-84
2023/11/30 01:51:34;;;;;;;11.50;5.30;;;;;;;-0.94;100.00;99946.84;5037345;28;20025;-83
2023/11/30 01:54:00;;;;;;;8.00;4.60;;;;;;;-0.88;100.00;99950.78;5020969;28;20384;-84
2023/11/30 01:56:28;;;;;;;6.00;4.60;;;;;;;-0.87;100.00;99955.13;5021009;28;20040;-83
2023/11/30 01:58:54;;;;;;;8.65;4.93;;;;;;;-0.96;100.00;99951.41;5037257;28;20384;-84
2023/11/30 02:01:22;;;;;;;5.75;4.10;;;;;;;-0.99;100.00;99956.09;5037137;28;20033;-82
2023/11/30 02:03:48;;;;;;;7.20;3.95;;;;;;;-1.02;100.00;99961.63;5020526;28;20475;-83
2023/11/30 02:06:18;;;;;;;7.72;3.00;;;;;;;-1.06;100.00;99961.00;5053412;28;20126;-83
2023/11/30 02:08:45;;;;;;;7.88;3.70;;;;;;;-1.11;100.00;99969.28;5021677;28;20040;-83
2023/11/30 02:11:13;;;;;;;7.00;3.55;;;;;;;-1.12;100.00;99962.31;5020627;28;20047;-83
2023/11/30 02:13:43;;;;;;;8.90;4.78;;;;;;;-1.24;100.00;99944.84;5036417;28;20033;-83
2023/11/30 02:16:12;;;;;;;5.80;3.70;;;;;;;-1.05;100.00;99960.06;5053455;28;20119;-83
2023/11/30 02:18:37;;;;;;;6.18;3.22;;;;;;;-1.05;100.00;99962.69;5020597;28;20059;-83
2023/11/30 02:21:03;;;;;;;8.30;4.93;;;;;;;-0.98;100.00;99953.34;5054565;28;20417;-83
2023/11/30 02:23:31;;;;;;;9.85;5.35;;;;;;;-0.80;100.00;99956.28;5020108;28;20083;-83
2023/11/30 02:25:57;;;;;;;4.93;3.47;;;;;;;-0.60;100.00;99957.34;5020508;28;20495;-84
2023/11/30 02:28:25;;;;;;;6.47;3.33;;;;;;;-0.58;100.00;99957.19;5020516;28;20029;-83
2023/11/30 02:30:51;;;;;;;9.15;4.75;;;;;;;-0.56;100.00;99958.75;5036698;28;20044;-83
2023/11/30 02:33:20;;;;;;;5.82;3.47;;;;;;;-0.66;100.00;99960.50;5036357;28;20041;-83
2023/11/30 02:36:03;;;;;;;6.22;3.53;;;;;;;-0.82;100.00;99952.09;5020041;28;20087;-83
2023/11/30 02:38:53;;;;;;;7.50;3.58;;;;;;;-1.10;100.00;99943.75;5022152;28;20044;-83
2023/11/30 02:41:28;;;;;;;5.75;4.07;;;;;;;-1.08;100.00;99948.91;5019567;28;20549;-83
2023/11/30 02:44:00;;;;;;;5.22;3.53;;;;;;;-1.11;100.00;99948.19;5022142;28;20035;-83
2023/11/30 02:46:32;;;;;;;8.82;5.45;;;;;;;-0.76;100.00;99933.16;5036944;28;20045;-83
2023/11/30 02:48:57;;;;;;;6.38;4.10;;;;;;;-0.52;100.00;99948.81;5019743;28;20044;-83
2023/11/30 02:51:23;;;;;;;8.23;4.05;;;;;;;-0.43;100.00;99957.78;5036131;28;20025;-83
2023/11/30 02:53:49;;;;;;;6.93;5.47;;;;;;;-0.42;100.00;99940.94;5019934;28;20116;-83
2023/11/30 02:56:15;;;;;;;7.40;4.22;;;;;;;-0.35;100.00;99942.97;5036409;28;20180;-83
2023/11/30 02:58:40;;;;;;;7.63;4.57;;;;;;;-0.19;100.00;99942.53;5035913;28;20396;-83
2023/11/30 03:01:06;;;;;;;7.45;4.53;;;;;;;-0.09;100.00;99951.38;5052505;28;20078;-83
2023/11/30 03:03:32;;;;;;;5.47;3.72;;;;;;;-0.15;100.00;99946.63;5036005;28;20032;-83
2023/11/30 03:05:57;;;;;;;7.90;3.97;;;;;;;-0.27;100.00;99943.16;5019313;28;20120;-83
2023/11/30 03:08:25;;;;;;;6.80;4.00;;;;;;;-0.34;100.00;99957.88;5019546;28;20068;-83
2023/11/30 03:10:51;;;;;;;6.97;3.25;;;;;;;-0.41;100.00;99961.13;5019368;28;20523;-83
2023/11/30 03:13:17;;;;;;;6.03;3.20;;;;;;;-0.58;100.00;99960.72;5019194;28;20140;-83
2023/11/30 03:15:46;;;;;;;6.40;3.33;;;;;;;-0.77;100.00;99968.41;5036162;28;20075;-83
2023/11/30 03:18:13;;;;;;;5.30;3.60;;;;;;;-0.84;100.00;99964.59;5035707;28;20025;-85
2023/11/30 03:20:42;;;;;;;6.38;4.18;;;;;;;-0.84;100.00;99961.97;5052339;28;20163;-85
2023/11/30 03:23:10;;;;;;;8.60;4.10;;;;;;;-0.76;100.00;99956.91;5036078;28;20041;-84
2023/11/30 03:25:36;;;;;;;5.47;2.88;;;;;;;-0.88;100.00;99971.91;5035578;28;20082;-84
2023/11/30 03:28:02;;;;;;;5.68;3.40;;;;;;;-0.89;100.00;99983.44;5052279;28;20040;-84
2023/11/30 03:30:28;;;;;;;7.68;3.40;;;;;;;-0.98;100.00;99982.38;5035545;28;20029;-84
2023/11/30 03:32:55;;;;;;;6.97;3.83;;;;;;;-0.99;100.00;99964.00;5019379;28;20057;-85
2023/11/30 03:35:21;;;;;;;8.93;4.82;;;;;;;-0.73;100.00;99975.13;5052231;28;20033;-84
2023/11/30 03:37:47;;;;;;;6.13;3.47;;;;;;;-0.76;100.00;99978.03;5019555;28;20395;-83
2023/11/30 03:40:13;;;;;;;6.55;4.10;;;;;;;-0.73;100.00;99981.25;5019167;28;20119;-84
2023/11/30 03:42:38;;;;;;;8.27;4.00;;;;;;;-0.55;100.00;99962.25;5019182;28;20515;-84
2023/11/30 03:45:04;;;;;;;7.07;3.75;;;;;;;-0.48;100.00;99966.94;5019196;28;20025;-84
2023/11/30 03:47:30;;;;;;;6.00;4.03;;;;;;;-0.44;100.00;99978.06;5018752;28;20064;-84
2023/11/30 03:49:56;;;;;;;8.65;4.90;;;;;;;-0.54;100.00;99970.03;5035401;28;20100;-83
2023/11/30 03:52:22;;;;;;;6.15;4.03;;;;;;;-0.62;100.00;99963.72;5035614;28;20074;-84
2023/11/30 03:54:47;;;;;;;5.97;3.53;;;;;;;-0.51;100.00;99966.31;5035667;28;20068;-84
2023/11/30 03:57:13;;;;;;;7.57;4.80;;;;;;;-0.42;100.00;99970.88;5019358;28;20494;-84
2023/11/30 03:59:39;;;;;;;6.78;3.85;;;;;;;-0.31;100.00;99970.81;5051742;28;20025;-84
2023/11/30 04:02:04;;;;;;;6.68;4.57;;;;;;;-0.11;100.00;99963.06;5035638;28;20029;-84
2023/11/30 04:04:30;;;;;;;8.90;4.57;;;;;;;0.02;100.00;99965.53;5034936;28;20067;-84
2023/11/30 04:06:56;;;;;;;6.53;4.15;;;;;;;0.02;100.00;99962.88;5019157;28;20032;-84
2023/11/30 04:09:21;;;;;;;7.32;4.20;;;;;;;0.06;100.00;99964.31;5035152;28;20128;-84
2023/11/30 04:11:48;;;;;;;8.68;4.85;;;;;;;0.13;100.00;99966.31;5018362;28;20057;-84
2023/11/30 04:14:13;;;;;;;7.72;4.93;;;;;;;0.12;100.00;99961.97;5035264;28;20423;-84
2023/11/30 04:16:42;;;;;;;8.98;5.15;;;;;;;0.06;100.00;99965.16;5035606;28;20399;-84
2023/11/30 04:19:08;;;;;;;6.47;4.78;;;;;;;0.10;100.00;99965.72;5035632;28;20025;-84
2023/11/30 04:21:34;;;;;;;7.20;4.40;;;;;;;0.08;100.00;99967.63;5052639;28;20472;-83
2023/11/30 04:24:00;;;;;;;8.23;4.82;;;;;;;0.05;100.00;99971.38;5019388;28;20094;-84
2023/11/30 04:26:26;;;;;;;6.43;5.10;;;;;;;0.00;100.00;99965.66;5055500;28;20033;-84
2023/11/30 04:28:52;;;;;;;7.30;3.72;;;;;;;-0.06;100.00;99968.78;5039266;28;20368;-84
2023/11/30 04:31:17;;;;;;;6.25;4.05;;;;;;;-0.13;100.00;99964.97;5022740;28;20136;-84
2023/11/30 04:33:43;;;;;;;5.25;3.33;;;;;;;-0.29;100.00;99965.41;5022355;28;20043;-84
2023/11/30 04:36:09;;;;;;;7.57;5.25;;;;;;;-0.27;100.00;99972.22;5055673;28;20041;-84
2023/11/30 04:38:41;;;;;;;7.78;5.18;;;;;;;-0.22;100.00;99980.63;5039324;28;20128;-84
2023/11/30 04:41:10;;;;;;;5.53;4.18;;;;;;;-0.20;100.00;99975.22;5023384;28;20044;-84
2023/11/30 04:43:37;;;;;;;5.43;3.13;;;;;;;-0.26;100.00;99978.38;5022142;28;20029;-84
2023/11/30 04:46:03;;;;;;;8.63;5.18;;;;;;;-0.22;100.00;99977.16;5022579;28;20040;-83
2023/11/30 04:48:28;;;;;;;5.60;4.03;;;;;;;-0.21;100.00;99978.84;5038012;28;20455;-84
2023/11/30 04:50:54;;;;;;;8.05;5.07;;;;;;;-0.25;100.00;99967.66;5054699;28;20063;-84
2023/11/30 04:53:38;;;;;;;7.57;4.63;;;;;;;-0.26;100.00;99973.09;5021805;28;20391;-84
2023/11/30 04:56:05;;;;;;;8.45;4.82;;;;;;;-0.24;100.00;99971.13;5040199;28;20037;-84
2023/11/30 04:58:50;;;;;;;6.38;4.25;;;;;;;-0.19;100.00;99953.13;5022159;28;20033;-84
2023/11/30 05:01:29;;;;;;;7.75;5.18;;;;;;;0.05;100.00;99952.88;5023225;28;20479;-85
2023/11/30 05:04:19;;;;;;;9.00;4.72;;;;;;;0.18;100.00;99958.81;5024558;28;20079;-84
2023/11/30 05:06:58;;;;;;;9.25;4.45;;;;;;;0.18;100.00;99957.97;5054978;28;20033;-84
2023/11/30 05:09:44;;;;;;;7.25;4.65;;;;;;;0.18;100.00;99973.84;5054433;28;20448;-84
2023/11/30 05:12:20;;;;;;;6.00;4.18;;;;;;;0.18;100.00;99966.75;5041671;28;20113;-84
2023/11/30 05:15:03;;;;;;;7.57;4.70;;;;;;;0.14;100.00;99961.88;5037795;28;20021;-84
2023/11/30 05:18:02;;;;;;;6.85;4.72;;;;;;;0.04;100.00;99956.50;5039063;28;20108;-84
2023/11/30 05:20:56;;;;;;;5.78;4.30;;;;;;;0.02;100.00;99962.88;5040983;28;20424;-84
2023/11/30 05:23:57;;;;;;;;;;;;;;;;;;;;;
2023/11/30 05:26:41;;;;;;;6.95;4.70;;;;;;;-0.56;100.00;99969.31;5054750;28;20039;-84
2023/11/30 05:29:48;;;;;;;5.43;3.33;;;;;;;-0.54;100.00;99999.09;5029678;28;20037;-84
2023/11/30 05:32:37;;;;;;;6.18;3.90;;;;;;;-0.94;100.00;99977.69;5052670;28;20040;-84
2023/11/30 05:35:09;;;;;;;7.53;2.58;;;;;;;-0.98;100.00;99981.50;5022730;28;20128;-85
2023/11/30 05:37:37;;;;;;;7.82;4.55;;;;;;;-0.75;100.00;99975.25;5038185;28;20077;-84
2023/11/30 05:40:07;;;;;;;7.50;3.35;;;;;;;-0.36;100.00;99969.53;5022156;28;20036;-84
2023/11/30 05:42:35;;;;;;;6.35;4.22;;;;;;;-0.30;100.00;99975.13;5021268;28;20151;-84
2023/11/30 05:45:03;;;;;;;7.03;4.20;;;;;;;-0.22;100.00;99969.22;5054029;28;20025;-85
2023/11/30 05:47:37;;;;;;;4.43;2.47;;;;;;;-0.31;100.00;99964.72;5038523;28;20032;-84
2023/11/30 05:50:04;;;;;;;6.93;4.53;;;;;;;-0.20;100.00;99953.25;5021257;28;20039;-84
2023/11/30 05:52:35;;;;;;;5.30;3.78;;;;;;;-0.23;100.00;99946.41;5037585;28;20037;-84
2023/11/30 05:55:06;;;;;;;9.70;3.78;;;;;;;-0.21;100.00;99939.22;5053863;28;20029;-84
2023/11/30 05:57:35;;;;;;;6.05;3.63;;;;;;;-0.20;100.00;99945.34;5021205;28;20033;-84
2023/11/30 06:00:01;;;;;;;6.47;3.38;;;;;;;-0.42;100.00;99959.44;5021228;28;20039;-84
2023/11/30 06:02:28;;;;;;;4.15;2.35;;;;;;;-0.60;100.00;99967.06;5053283;28;20033;-84
2023/11/30 06:04:53;;;;;;;4.75;2.20;;;;;;;-0.86;100.00;99972.63;5037404;28;20037;-84
2023/11/30 06:07:20;;;;;;;7.82;3.75;;;;;;;-0.99;100.00;99996.50;5037308;28;20131;-84
2023/11/30 06:09:46;;;;;;;5.40;2.65;;;;;;;-1.13;100.00;99991.47;5037095;28;20550;-84
2023/11/30 06:12:12;;;;;;;7.20;2.92;;;;;;;-1.33;100.00;99993.00;5037145;28;20033;-84
2023/11/30 06:14:38;;;;;;;5.57;3.08;;;;;;;-1.34;100.00;99994.81;5020454;28;20037;-84
2023/11/30 06:17:04;;;;;;;4.35;2.58;;;;;;;-1.38;100.00;99993.34;5053387;28;20398;-84
2023/11/30 06:19:30;;;;;;;6.13;3.53;;;;;;;-1.06;100.00;100000.56;5036698;28;20471;-85
2023/11/30 06:21:56;;;;;;;5.60;3.90;;;;;;;-0.70;100.00;100003.91;5036652;28;20054;-85
2023/11/30 06:24:22;;;;;;;7.80;4.50;;;;;;;-0.47;100.00;100007.38;5036451;28;20467;-84
2023/11/30 06:26:48;;;;;;;7.03;4.50;;;;;;;-0.55;100.00;99999.22;5020589;28;20025;-84
2023/11/30 06:29:15;;;;;;;6.40;3.33;;;;;;;-0.56;100.00;100001.00;5036894;28;20506;-84
2023/11/30 06:31:41;;;;;;;6.18;2.90;;;;;;;-0.61;100.00;99997.06;5036748;28;20123;-84
2023/11/30 06:34:07;;;;;;;6.25;3.28;;;;;;;-0.65;100.00;99996.47;5053117;28;20116;-84
2023/11/30 06:36:33;;;;;;;9.15;4.85;;;;;;;-0.58;100.00;99997.66;5020171;28;20048;-85
2023/11/30 06:38:59;;;;;;;6.32;2.95;;;;;;;-0.63;100.00;100001.66;5020359;28;20387;-84
2023/11/30 06:41:24;;;;;;;6.20;3.70;;;;;;;-0.77;100.00;100008.00;5036353;28;20052;-84
2023/11/30 06:43:50;;;;;;;5.65;2.65;;;;;;;-0.81;100.00;100011.84;5036746;28;20067;-84
2023/11/30 06:46:22;;;;;;;3.97;2.10;;;;;;;-0.87;100.00;100007.91;5036017;28;20391;-84
2023/11/30 06:48:51;;;;;;;5.53;3.15;;;;;;;-0.68;100.00;100007.28;5019740;28;20033;-85
2023/11/30 06:51:17;;;;;;;7.38;3.88;;;;;;;-0.59;100.00;100011.81;5052833;28;20041;-85
2023/11/30 06:53:46;;;;;;;5.80;3.20;;;;;;;-0.54;100.00;100016.75;5036594;28;20051;-84
2023/11/30 06:56:14;;;;;;;5.03;2.00;;;;;;;-0.67;100.00;100024.78;5020318;28;20168;-84
2023/11/30 06:58:43;;;;;;;6.47;3.30;;;;;;;-0.59;100.00;100029.47;5035973;28;20104;-83
2023/11/30 07:01:09;;;;;;;5.80;3.20;;;;;;;-0.69;100.00;100032.84;5036192;28;20045;-83
2023/11/30 07:03:42;;;;;;;4.60;2.40;;;;;;;-0.79;100.00;100031.06;5019797;28;20033;-83
2023/11/30 07:06:08;;;;;;;6.72;3.38;;;;;;;-0.63;100.00;100030.69;5020039;28;20057;-83
2023/11/30 07:08:33;;;;;;;7.22;3.47;;;;;;;-0.47;100.00;100034.63;5019809;28;20059;-83
2023/11/30 07:10:59;;;;;;;5.90;3.40;;;;;;;-0.48;100.00;100029.44;5051903;28;20036;-83
2023/11/30 07:13:25;;;;;;;5.00;3.33;;;;;;;-0.41;100.00;100040.38;5035990;28;20044;-84
2023/11/30 07:15:51;;;;;;;3.92;2.60;;;;;;;-0.33;100.00;100036.13;5036196;28;20033;-84
2023/11/30 07:18:17;;;;;;;7.90;3.33;;;;;;;-0.31;100.00;100038.66;5052182;28;20040;-84
2023/11/30 07:20:42;;;;;;;5.60;2.28;;;;;;;-0.23;100.00;100038.88;5035467;28;20060;-83
2023/11/30 07:23:11;;;;;;;7.28;3.30;;;;;;;-0.23;100.00;100049.47;5051917;28;20025;-84
2023/11/30 07:25:37;;;;;;;4.20;2.38;;;;;;;-0.16;100.00;100047.13;5047610;28;20119;-83
2023/11/30 07:28:03;;;;;;;6.22;3.63;;;;;;;-0.04;100.00;100049.63;5036120;28;20041;-84
2023/11/30 07:30:29;;;;;;;6.20;3.58;;;;;;;0.06;100.00;100048.91;5036210;28;20131;-84
2023/11/30 07:32:55;;;;;;;4.28;2.70;;;;;;;0.08;100.00;100053.09;5035128;28;20424;-83
2023/11/30 07:35:21;;;;;;;5.20;2.42;;;;;;;-0.02;100.00;100050.34;5052027;28;20143;-83
2023/11/30 07:37:47;;;;;;;5.80;3.00;;;;;;;0.02;100.00;100047.44;5019246;28;20061;-83
2023/11/30 07:40:12;;;;;;;6.65;3.05;;;;;;;-0.12;100.00;100049.41;5019420;28;20084;-83
2023/11/30 07:42:38;;;;;;;5.18;2.83;;;;;;;0.02;100.00;100056.22;5035350;28;20081;-83
2023/11/30 07:45:04;;;;;;;3.92;2.50;;;;;;;-0.05;100.00;100053.25;5035473;28;20098;-83
2023/11/30 07:47:32;;;;;;;6.55;2.95;;;;;;;-0.04;100.00;100051.44;5035036;28;20187;-84
2023/11/30 07:50:02;;;;;;;4.30;3.13;;;;;;;-0.01;100.00;100054.66;5019388;28;20131;-83
2023/11/30 07:52:29;;;;;;;4.65;2.78;;;;;;;-0.03;100.00;100064.53;5019921;28;20475;-84
2023/11/30 07:54:55;;;;;;;4.72;2.88;;;;;;;-0.01;100.00;100067.03;5035292;28;20033;-83
2023/11/30 07:57:20;;;;;;;3.97;2.22;;;;;;;0.01;100.00;100057.19;5034815;28;20029;-83
2023/11/30 07:59:47;;;;;;;4.80;3.03;;;;;;;0.18;100.00;100076.94;5022773;28;20037;-83
2023/11/30 08:02:13;;;;;;;5.63;2.45;;;;;;;0.22;100.00;100079.22;5039622;28;20040;-83
2023/11/30 08:04:39;;;;;;;4.75;3.08;;;;;;;0.26;100.00;100081.59;5022237;28;20021;-82
2023/11/30 08:07:07;;;;;;;3.13;2.20;;;;;;;0.22;100.00;100081.03;5023144;28;20033;-83
2023/11/30 08:09:33;;;;;;;3.10;1.83;;;;;;;0.27;100.00;100086.78;5039435;28;20513;-83
2023/11/30 08:11:58;;;;;;;7.18;2.72;;;;;;;0.17;100.00;100080.56;5038707;28;20072;-83
2023/11/30 08:14:24;;;;;;;4.63;2.50;;;;;;;0.08;100.00;100091.88;5055608;28;20115;-83
2023/11/30 08:16:50;;;;;;;2.05;1.27;;;;;;;-0.01;100.00;100088.19;5022553;28;20043;-83
2023/11/30 08:19:15;;;;;;;6.03;3.38;;;;;;;-0.12;100.00;100093.50;5022414;28;20041;-83
2023/11/30 08:21:41;;;;;;;4.60;2.88;;;;;;;-0.08;100.00;100101.06;5023021;28;20379;-83
2023/11/30 08:24:11;;;;;;;6.57;2.67;;;;;;;-0.14;100.00;100106.81;5039489;28;20505;-83
2023/11/30 08:26:37;;;;;;;5.07;2.83;;;;;;;-0.33;100.00;100109.28;5057095;28;20115;-82
2023/11/30 08:29:05;;;;;;;4.18;1.95;;;;;;;-0.34;100.00;100116.38;5042607;28;20033;-83
2023/11/30 08:31:33;;;;;;;4.72;2.80;;;;;;;-0.26;100.00;100123.69;5022167;28;20025;-83
2023/11/30 08:33:59;;;;;;;4.80;2.40;;;;;;;-0.22;100.00;100127.75;5039151;28;20068;-84
2023/11/30 08:36:24;;;;;;;3.80;1.98;;;;;;;-0.22;100.00;100133.03;5022810;28;20075;-83
2023/11/30 08:38:52;;;;;;;3.78;2.10;;;;;;;-0.47;100.00;100132.34;5022642;28;20416;-83
2023/11/30 08:41:17;;;;;;;7.88;2.70;;;;;;;-0.56;100.00;100148.88;5022844;28;20099;-84
2023/11/30 08:43:43;;;;;;;5.82;2.33;;;;;;;-0.70;100.00;100155.25;5022364;28;20545;-83
2023/11/30 08:46:11;;;;;;;4.68;2.45;;;;;;;-0.90;100.00;100146.22;5038022;28;20029;-83
2023/11/30 08:48:39;;;;;;;4.25;2.33;;;;;;;-1.00;100.00;100147.03;5039067;28;20127;-83
2023/11/30 08:51:07;;;;;;;4.88;2.17;;;;;;;-1.09;100.00;100161.75;5022225;28;20103;-83
2023/11/30 08:53:32;;;;;;;6.57;2.50;;;;;;;-1.01;100.00;100159.38;5055102;28;20471;-83
2023/11/30 08:56:01;;;;;;;4.70;2.40;;;;;;;-0.86;100.00;100164.47;5039138;28;20033;-83
2023/11/30 08:58:27;;;;;;;5.32;3.40;;;;;;;-0.54;100.00;100168.09;5022144;28;20373;-83
2023/11/30 09:00:52;;;;;;;3.70;2.70;;;;;;;-0.50;100.00;100163.44;5022177;28;20029;-83
2023/11/30 09:03:18;;;;;;;1.55;1.40;;;;;;;-0.51;100.00;100165.22;5021703;28;20031;-83
2023/11/30 09:05:47;;;;;;;5.55;2.85;;;;;;;-0.44;100.00;100168.22;5054554;28;20028;-84
2023/11/30 09:08:12;;;;;;;3.13;2.15;;;;;;;-0.40;100.00;100164.38;5038480;28;20123;-84
2023/11/30 09:10:38;;;;;;;6.05;2.75;;;;;;;-0.34;100.00;100174.47;5021251;28;20025;-83
2023/11/30 09:13:05;;;;;;;3.58;2.40;;;;;;;-0.30;100.00;100172.44;5038073;28;20025;-84
2023/11/30 09:15:34;;;;;;;4.93;2.90;;;;;;;-0.18;100.00;100165.34;5038314;28;20051;-83
2023/11/30 09:18:01;;;;;;;3.70;2.17;;;;;;;0.03;100.00;100170.69;5037144;28;20029;-81
2023/11/30 09:20:27;;;;;;;4.07;2.33;;;;;;;0.15;100.00;100172.38;5037787;28;20033;-81
2023/11/30 09:22:55;;;;;;;3.97;2.75;;;;;;;0.19;100.00;100165.88;5021725;28;20040;-81
2023/11/30 09:25:21;;;;;;;4.75;2.92;;;;;;;0.17;100.00;100167.81;5037750;28;20104;-81
2023/11/30 09:27:47;;;;;;;4.30;2.80;;;;;;;0.24;100.00;100173.44;5037680;28;20115;-81
2023/11/30 09:30:13;;;;;;;4.07;2.53;;;;;;;0.33;100.00;100165.59;5038004;28;20124;-81
2023/11/30 09:32:39;;;;;;;3.83;2.47;;;;;;;0.44;100.00;100172.66;5021304;28;20091;-80
2023/11/30 09:38:54;;;;;;;3.70;2.30;;;;;;;0.82;100.00;100171.31;5054997;28;20053;-81
2023/11/30 09:41:22;;;;;;;4.05;2.20;;;;;;;0.82;100.00;100189.81;5021216;28;20403;-81
2023/11/30 09:43:48;;;;;;;5.30;2.60;;;;;;;1.00;100.00;100187.47;5053842;28;20082;-82
2023/11/30 09:46:14;;;;;;;4.00;2.35;;;;;;;1.12;100.00;100191.75;5037827;28;20037;-81
2023/11/30 09:48:41;;;;;;;5.15;3.25;;;;;;;1.25;100.00;100191.56;5053761;28;20384;-82
2023/11/30 09:52:10;;;;;;;;;;;;;;;;;;;;;
2023/11/30 09:55:35;;;;;;;4.20;2.40;;;;;;;1.41;100.00;100201.69;5052760;28;20112;-81
2023/11/30 09:58:40;;;;;;;;;;;;;;;;;;;;;
2023/11/30 10:01:10;;;;;;;4.32;2.15;;;;;;;2.26;100.00;100211.94;5042067;28;20489;-81
2023/11/30 10:04:48;;;;;;;2.75;1.90;;;;;;;3.15;100.00;100205.72;5053307;28;20064;-81
2023/11/30 10:08:17;;;;;;;3.33;1.90;;;;;;;3.67;100.00;100196.38;5053282;28;20493;-82
2023/11/30 10:11:00;;;;;;;2.90;2.30;;;;;;;4.15;100.00;100195.34;5032225;28;20128;-82
2023/11/30 10:13:26;;;;;;;3.53;1.90;;;;;;;4.77;100.00;100206.16;5004225;28;20042;-82
2023/11/30 10:15:58;;;;;;;4.03;1.70;;;;;;;4.95;100.00;100202.63;5035221;28;20044;-82
2023/11/30 10:18:27;;;;;;;3.60;1.73;;;;;;;4.60;100.00;100198.97;5020089;28;20480;-81
2023/11/30 10:20:57;;;;;;;2.35;1.90;;;;;;;4.25;100.00;100203.25;5020289;28;20033;-81
2023/11/30 10:23:25;;;;;;;3.28;1.90;;;;;;;3.93;100.00;100199.22;5019115;28;20029;-82
2023/11/30 10:25:57;;;;;;;3.20;1.77;;;;;;;3.80;100.00;100196.06;5053118;28;20487;-81
2023/11/30 10:28:23;;;;;;;4.43;1.80;;;;;;;3.99;100.00;100210.25;5036913;28;20060;-81
2023/11/30 10:30:56;;;;;;;1.75;1.20;;;;;;;3.87;100.00;100209.63;5036653;28;20385;-81
2023/11/30 10:33:24;;;;;;;2.50;1.67;;;;;;;3.91;100.00;100214.47;5021642;28;20045;-81
2023/11/30 10:36:06;;;;;;;3.42;1.70;;;;;;;3.97;100.00;100221.88;5020599;28;20041;-80
2023/11/30 10:38:37;;;;;;;1.80;1.50;;;;;;;4.18;100.00;100216.34;5019809;28;20091;-81
2023/11/30 10:41:15;;;;;;;4.45;1.80;;;;;;;3.71;100.00;100210.22;5020289;28;20047;-80
2023/11/30 10:43:48;;;;;;;2.55;1.70;;;;;;;3.65;100.00;100216.09;5019773;28;20463;-81
2023/11/30 10:46:16;;;;;;;3.30;1.92;;;;;;;3.52;100.00;100222.59;5036100;28;20021;-80
2023/11/30 10:48:45;;;;;;;2.45;1.77;;;;;;;3.47;100.00;100221.34;5035788;28;20098;-81
2023/11/30 10:51:19;;;;;;;2.47;1.67;;;;;;;3.56;100.00;100214.31;5036470;28;20076;-81
2023/11/30 10:53:52;;;;;;;;;;;;;;;3.59;100.00;100214.03;5020520;28;20144;-81
2023/11/30 10:56:17;;;;;;;2.20;1.45;;;;;;;3.36;100.00;100213.50;5069693;28;20314;-81
2023/11/30 10:59:37;;;;;;;2.75;1.85;;;;;;;2.87;100.00;100216.22;5020557;28;20045;-81
2023/11/30 11:02:22;;;;;;;3.25;1.88;;;;;;;2.72;100.00;100212.28;5031376;28;20106;-80
2023/11/30 11:08:19;;;;;;;3.13;1.92;;;;;;;2.89;100.00;100201.00;5038401;28;20037;-81
2023/11/30 11:11:14;;;;;;;5.32;3.15;;;;;;;2.93;100.00;100223.63;5022389;28;20090;-81
2023/11/30 11:13:49;;;;;;;4.97;3.10;;;;;;;2.75;100.00;100223.50;5035827;28;20033;-80
2023/11/30 11:16:19;;;;;;;5.40;2.42;;;;;;;2.70;100.00;100223.06;5022428;28;20047;-81
2023/11/30 11:19:00;;;;;;;2.88;2.25;;;;;;;2.69;100.00;100221.38;5018719;28;20124;-81
2023/11/30 11:21:28;;;;;;;2.80;2.00;;;;;;;2.78;100.00;100227.66;5018887;28;20094;-81
2023/11/30 11:24:40;;;;;;;4.47;2.20;;;;;;;2.90;100.00;100223.91;5023506;28;20041;-81
2023/11/30 11:27:06;;;;;;;3.88;2.30;;;;;;;3.21;100.00;100227.25;5029610;28;20050;-82
2023/11/30 11:29:32;;;;;;;3.15;1.90;;;;;;;3.28;100.00;100231.03;5068307;28;20076;-82
2023/11/30 11:31:59;;;;;;;4.22;2.75;;;;;;;3.22;100.00;100220.94;5035696;28;20399;-82
2023/11/30 11:34:27;;;;;;;2.70;1.85;;;;;;;2.99;100.00;100228.41;5051874;28;20029;-82
2023/11/30 11:36:53;;;;;;;2.67;2.00;;;;;;;2.86;100.00;100219.88;5052093;28;20099;-81
2023/11/30 11:39:18;;;;;;;4.63;2.47;;;;;;;2.99;100.00;100228.41;5019433;28;20481;-82
2023/11/30 11:41:52;;;;;;;2.83;1.70;;;;;;;3.08;100.00;100226.72;5035462;28;20033;-82
2023/11/30 11:44:18;;;;;;;2.28;1.77;;;;;;;2.93;100.00;100220.97;5019471;28;20036;-82
2023/11/30 11:46:47;;;;;;;2.63;1.60;;;;;;;2.94;100.00;100224.44;5035396;28;20029;-81